Time,TemperatureF,DewpointF,PressureIn,WindDirection,WindDirectionDegrees,WindSpeedMPH,WindSpeedGustMPH,Humidity,HourlyPrecipIn,Conditions,Clouds,dailyrainin,SoftwareType,DateUTC
2013-03-21 00:03:00,38.0,23.7,29.75,NW,307,4.0,5.0,56,0.00,,---,0.00,VWS V14.01,2013-03-21 04:03:00,
2013-03-21 00:08:00,38.0,23.7,29.75,WNW,291,4.0,5.0,56,0.00,,---,0.00,VWS V14.01,2013-03-21 04:08:00,
2013-03-21 00:13:00,38.0,24.5,29.75,WNW,294,5.0,5.0,58,0.00,,---,0.00,VWS V14.01,2013-03-21 04:13:00,
2013-03-21 00:18:00,37.9,25.7,29.75,WSW,251,6.0,8.0,61,0.00,,---,0.00,VWS V14.01,2013-03-21 04:18:00,
2013-03-21 00:23:00,37.6,25.4,29.75,WNW,291,7.0,10.0,61,0.00,,---,0.00,VWS V14.01,2013-03-21 04:23:00,
2013-03-21 00:28:00,37.2,25.0,29.75,West,277,5.0,11.0,61,0.00,,---,0.00,VWS V14.01,2013-03-21 04:28:00,
2013-03-21 00:33:00,36.9,25.1,29.75,NW,312,6.0,7.0,62,0.00,,---,0.00,VWS V14.01,2013-03-21 04:33:00,
2013-03-21 00:38:00,36.6,25.6,29.75,West,267,6.0,7.0,64,0.00,,---,0.00,VWS V14.01,2013-03-21 04:38:00,
2013-03-21 00:43:00,36.5,25.5,29.75,WNW,301,7.0,7.0,64,0.00,,---,0.00,VWS V14.01,2013-03-21 04:43:00,
2013-03-21 00:48:00,36.3,25.7,29.74,WNW,296,0.0,3.0,65,0.00,,---,0.00,VWS V14.01,2013-03-21 04:48:00,
2013-03-21 00:53:00,36.0,26.1,29.74,West,269,0.0,5.0,67,0.00,,---,0.00,VWS V14.01,2013-03-21 04:53:00,
2013-03-21 00:58:00,35.9,26.4,29.74,WNW,291,2.0,4.0,68,0.00,,---,0.00,VWS V14.01,2013-03-21 04:58:00,
2013-03-21 01:03:00,35.8,26.6,29.75,West,273,2.0,5.0,69,0.00,,---,0.00,VWS V14.01,2013-03-21 05:03:00,
2013-03-21 01:08:00,35.8,26.6,29.75,West,272,1.0,2.0,69,0.00,,---,0.00,VWS V14.01,2013-03-21 05:08:00,
2013-03-21 01:13:00,35.6,26.8,29.75,North,5,1.0,2.0,70,0.00,,---,0.00,VWS V14.01,2013-03-21 05:13:00,
2013-03-21 01:18:00,35.5,27.0,29.74,North,360,0.0,1.0,71,0.00,,---,0.00,VWS V14.01,2013-03-21 05:18:00,
2013-03-21 01:23:00,35.3,27.2,29.74,WNW,298,3.0,3.0,72,0.00,,---,0.00,VWS V14.01,2013-03-21 05:23:00,
2013-03-21 01:28:00,35.3,27.2,29.74,WNW,294,0.0,1.0,72,0.00,,---,0.00,VWS V14.01,2013-03-21 05:28:00,
2013-03-21 01:33:00,35.2,27.1,29.75,NW,321,0.0,4.0,72,0.00,,---,0.00,VWS V14.01,2013-03-21 05:33:00,
2013-03-21 01:38:00,35.0,26.9,29.75,NW,323,0.0,5.0,72,0.00,,---,0.00,VWS V14.01,2013-03-21 05:38:00,
2013-03-21 01:43:00,34.7,26.3,29.75,NW,323,0.0,2.0,71,0.00,,---,0.00,VWS V14.01,2013-03-21 05:43:00,
2013-03-21 01:48:00,34.6,25.8,29.74,NW,319,0.0,0.0,70,0.00,,---,0.00,VWS V14.01,2013-03-21 05:48:00,
2013-03-21 01:53:00,34.4,25.6,29.74,NNE,14,1.0,6.0,70,0.00,,---,0.00,VWS V14.01,2013-03-21 05:53:00,
2013-03-21 01:58:00,34.3,26.9,29.74,North,360,2.0,5.0,74,0.00,,---,0.00,VWS V14.01,2013-03-21 05:58:00,
2013-03-21 02:03:00,33.8,26.7,29.74,North,355,4.0,5.0,75,0.00,,---,0.00,VWS V14.01,2013-03-21 06:03:00,
2013-03-21 02:08:00,33.5,26.8,29.74,NW,307,5.0,8.0,76,0.00,,---,0.00,VWS V14.01,2013-03-21 06:08:00,
2013-03-21 02:13:00,33.1,26.7,29.74,NNW,327,1.0,5.0,77,0.00,,---,0.00,VWS V14.01,2013-03-21 06:13:00,
2013-03-21 02:18:00,32.9,26.5,29.74,NNW,327,0.0,3.0,77,0.00,,---,0.00,VWS V14.01,2013-03-21 06:18:00,
2013-03-21 02:23:00,32.8,26.7,29.74,NNW,344,5.0,7.0,78,0.00,,---,0.00,VWS V14.01,2013-03-21 06:23:00,
2013-03-21 02:28:00,32.7,26.6,29.74,North,9,1.0,6.0,78,0.00,,---,0.00,VWS V14.01,2013-03-21 06:28:00,
2013-03-21 02:33:00,32.7,26.9,29.74,North,355,0.0,4.0,79,0.00,,---,0.00,VWS V14.01,2013-03-21 06:33:00,
2013-03-21 02:38:00,32.5,27.3,29.74,NNE,14,4.0,7.0,81,0.00,,---,0.00,VWS V14.01,2013-03-21 06:38:00,
2013-03-21 02:43:00,32.2,27.0,29.74,NNE,13,0.0,2.0,81,0.00,,---,0.00,VWS V14.01,2013-03-21 06:43:00,
2013-03-21 02:48:00,32.1,27.2,29.74,North,10,4.0,6.0,82,0.00,,---,0.00,VWS V14.01,2013-03-21 06:48:00,
2013-03-21 02:53:00,31.8,26.9,29.74,NNE,24,2.0,5.0,82,0.00,,---,0.00,VWS V14.01,2013-03-21 06:53:00,
2013-03-21 02:58:00,31.5,26.6,29.74,NNE,13,0.0,1.0,82,0.00,,---,0.00,VWS V14.01,2013-03-21 06:58:00,
2013-03-21 03:03:00,31.3,26.5,29.74,NNE,13,1.0,2.0,82,0.00,,---,0.00,VWS V14.01,2013-03-21 07:03:00,
2013-03-21 03:08:00,31.2,26.6,29.74,NNE,13,0.0,2.0,83,0.00,,---,0.00,VWS V14.01,2013-03-21 07:08:00,
2013-03-21 03:13:00,31.0,26.7,29.74,NNE,13,0.0,0.0,84,0.00,,---,0.00,VWS V14.01,2013-03-21 07:13:00,
2013-03-21 03:18:00,30.9,26.6,29.73,NNE,13,0.0,0.0,84,0.00,,---,0.00,VWS V14.01,2013-03-21 07:18:00,
2013-03-21 03:23:00,30.9,26.6,29.73,NNE,13,0.0,2.0,84,0.00,,---,0.00,VWS V14.01,2013-03-21 07:23:00,
2013-03-21 03:28:00,30.9,26.6,29.73,NNE,13,0.0,0.0,84,0.00,,---,0.00,VWS V14.01,2013-03-21 07:28:00,
2013-03-21 03:33:00,30.7,26.5,29.73,NNE,13,0.0,2.0,84,0.00,,---,0.00,VWS V14.01,2013-03-21 07:33:00,
2013-03-21 03:38:00,30.7,26.2,29.73,North,5,1.0,2.0,83,0.00,,---,0.00,VWS V14.01,2013-03-21 07:38:00,
2013-03-21 03:43:00,30.9,26.1,29.73,North,5,1.0,1.0,82,0.00,,---,0.00,VWS V14.01,2013-03-21 07:43:00,
2013-03-21 03:48:00,30.9,25.5,29.73,NNW,345,2.0,2.0,80,0.00,,---,0.00,VWS V14.01,2013-03-21 07:48:00,
2013-03-21 03:53:00,30.9,24.5,29.73,NNW,337,0.0,2.0,77,0.00,,---,0.00,VWS V14.01,2013-03-21 07:53:00,
2013-03-21 03:58:00,31.0,23.4,29.73,NW,319,0.0,2.0,73,0.00,,---,0.00,VWS V14.01,2013-03-21 07:58:00,
2013-03-21 04:03:00,31.2,22.6,29.72,NW,309,1.0,2.0,70,0.00,,---,0.00,VWS V14.01,2013-03-21 08:03:00,
2013-03-21 04:08:00,31.3,22.7,29.72,NW,307,4.0,5.0,70,0.00,,---,0.00,VWS V14.01,2013-03-21 08:08:00,
2013-03-21 04:13:00,31.3,21.3,29.72,NW,306,2.0,6.0,66,0.00,,---,0.00,VWS V14.01,2013-03-21 08:13:00,
2013-03-21 04:18:00,31.3,20.5,29.73,NW,305,2.0,5.0,64,0.00,,---,0.00,VWS V14.01,2013-03-21 08:18:00,
2013-03-21 04:23:00,31.3,20.2,29.73,NW,305,1.0,4.0,63,0.00,,---,0.00,VWS V14.01,2013-03-21 08:23:00,
2013-03-21 04:28:00,31.3,19.8,29.73,NW,306,2.0,3.0,62,0.00,,---,0.00,VWS V14.01,2013-03-21 08:28:00,
2013-03-21 04:33:00,31.2,17.8,29.72,West,263,4.0,7.0,57,0.00,,---,0.00,VWS V14.01,2013-03-21 08:33:00,
2013-03-21 04:38:00,31.0,15.4,29.72,WNW,294,7.0,7.0,52,0.00,,---,0.00,VWS V14.01,2013-03-21 08:38:00,
2013-03-21 04:43:00,31.0,15.4,29.72,WNW,286,1.0,3.0,52,0.00,,---,0.00,VWS V14.01,2013-03-21 08:43:00,
2013-03-21 04:48:00,30.9,15.4,29.72,WNW,288,0.0,1.0,52,0.00,,---,0.00,VWS V14.01,2013-03-21 08:48:00,
2013-03-21 04:53:00,30.7,15.6,29.72,WSW,243,2.0,4.0,53,0.00,,---,0.00,VWS V14.01,2013-03-21 08:53:00,
2013-03-21 04:58:00,30.6,15.1,29.72,West,268,1.0,5.0,52,0.00,,---,0.00,VWS V14.01,2013-03-21 08:58:00,
2013-03-21 05:03:00,30.3,14.8,29.72,WNW,297,0.0,4.0,52,0.00,,---,0.00,VWS V14.01,2013-03-21 09:03:00,
2013-03-21 05:08:00,30.1,14.6,29.72,WSW,247,4.0,4.0,52,0.00,,---,0.00,VWS V14.01,2013-03-21 09:08:00,
2013-03-21 05:13:00,30.0,14.5,29.72,NW,318,0.0,2.0,52,0.00,,---,0.00,VWS V14.01,2013-03-21 09:13:00,
2013-03-21 05:18:00,29.8,14.8,29.72,WNW,297,1.0,2.0,53,0.00,,---,0.00,VWS V14.01,2013-03-21 09:18:00,
2013-03-21 05:23:00,29.7,14.7,29.72,WNW,299,1.0,4.0,53,0.00,,---,0.00,VWS V14.01,2013-03-21 09:23:00,
2013-03-21 05:28:00,29.4,14.4,29.72,WNW,299,4.0,4.0,53,0.00,,---,0.00,VWS V14.01,2013-03-21 09:28:00,
2013-03-21 05:33:00,29.3,13.9,29.73,WNW,300,0.0,1.0,52,0.00,,---,0.00,VWS V14.01,2013-03-21 09:33:00,
2013-03-21 05:38:00,29.1,14.1,29.73,WNW,300,0.0,2.0,53,0.00,,---,0.00,VWS V14.01,2013-03-21 09:38:00,
2013-03-21 05:43:00,28.8,14.3,29.73,NW,308,0.0,2.0,54,0.00,,---,0.00,VWS V14.01,2013-03-21 09:43:00,
2013-03-21 05:48:00,28.7,14.2,29.74,NW,308,2.0,2.0,54,0.00,,---,0.00,VWS V14.01,2013-03-21 09:48:00,
2013-03-21 05:53:00,28.5,14.4,29.74,NW,308,0.0,1.0,55,0.00,,---,0.00,VWS V14.01,2013-03-21 09:53:00,
2013-03-21 05:58:00,28.4,13.9,29.74,NW,306,0.0,3.0,54,0.00,,---,0.00,VWS V14.01,2013-03-21 09:58:00,
2013-03-21 06:03:00,28.2,13.7,29.74,NW,306,3.0,5.0,54,0.00,,---,0.00,VWS V14.01,2013-03-21 10:03:00,
2013-03-21 06:08:00,28.1,14.0,29.74,NW,306,2.0,2.0,55,0.00,,---,0.00,VWS V14.01,2013-03-21 10:08:00,
2013-03-21 06:13:00,27.9,13.8,29.74,NW,306,0.0,0.0,55,0.00,,---,0.00,VWS V14.01,2013-03-21 10:13:00,
2013-03-21 06:18:00,27.9,13.8,29.74,NW,306,0.0,0.0,55,0.00,,---,0.00,VWS V14.01,2013-03-21 10:18:00,
2013-03-21 06:23:00,27.8,13.8,29.74,NW,306,0.0,0.0,55,0.00,,---,0.00,VWS V14.01,2013-03-21 10:23:00,
2013-03-21 06:28:00,27.6,13.6,29.74,WNW,302,1.0,2.0,55,0.00,,---,0.00,VWS V14.01,2013-03-21 10:28:00,
2013-03-21 06:33:00,27.5,13.1,29.75,WSW,242,0.0,6.0,54,0.00,,---,0.00,VWS V14.01,2013-03-21 10:33:00,
2013-03-21 06:38:00,27.6,12.3,29.75,WSW,257,3.0,4.0,52,0.00,,---,0.00,VWS V14.01,2013-03-21 10:38:00,
2013-03-21 06:43:00,27.6,12.7,29.75,WSW,258,1.0,2.0,53,0.00,,---,0.00,VWS V14.01,2013-03-21 10:43:00,
2013-03-21 06:48:00,27.6,12.7,29.75,West,267,2.0,5.0,53,0.00,,---,0.00,VWS V14.01,2013-03-21 10:48:00,
2013-03-21 06:53:00,27.6,12.3,29.75,WNW,292,2.0,6.0,52,0.00,,---,0.00,VWS V14.01,2013-03-21 10:53:00,
2013-03-21 06:58:00,27.8,12.5,29.75,West,280,2.0,6.0,52,0.00,,---,0.00,VWS V14.01,2013-03-21 10:58:00,
2013-03-21 07:03:00,27.9,12.6,29.76,SW,225,3.0,7.0,52,0.00,,---,0.00,VWS V14.01,2013-03-21 11:03:00,
2013-03-21 07:08:00,27.9,12.6,29.76,NW,311,4.0,5.0,52,0.00,,---,0.00,VWS V14.01,2013-03-21 11:08:00,
2013-03-21 07:13:00,27.9,12.6,29.76,WNW,302,2.0,4.0,52,0.00,,---,0.00,VWS V14.01,2013-03-21 11:13:00,
2013-03-21 07:18:00,27.9,13.0,29.76,WNW,302,1.0,1.0,53,0.00,,---,0.00,VWS V14.01,2013-03-21 11:18:00,
2013-03-21 07:23:00,27.8,13.3,29.76,WNW,302,0.0,0.0,54,0.00,,---,0.00,VWS V14.01,2013-03-21 11:23:00,
2013-03-21 07:28:00,27.6,13.1,29.76,WNW,303,1.0,3.0,54,0.00,,---,0.00,VWS V14.01,2013-03-21 11:28:00,
2013-03-21 07:33:00,27.6,13.6,29.77,WNW,303,0.0,2.0,55,0.00,,---,0.00,VWS V14.01,2013-03-21 11:33:00,
2013-03-21 07:38:00,27.6,13.6,29.77,NW,304,1.0,4.0,55,0.00,,---,0.00,VWS V14.01,2013-03-21 11:38:00,
2013-03-21 07:43:00,27.6,13.6,29.77,WNW,295,4.0,5.0,55,0.00,,---,0.00,VWS V14.01,2013-03-21 11:43:00,
2013-03-21 07:48:00,27.6,13.1,29.77,WNW,295,2.0,4.0,54,0.00,,---,0.00,VWS V14.01,2013-03-21 11:48:00,
2013-03-21 07:53:00,27.6,12.7,29.77,WNW,295,2.0,4.0,53,0.00,,---,0.00,VWS V14.01,2013-03-21 11:53:00,
2013-03-21 07:58:00,27.6,11.4,29.77,West,262,6.0,9.0,50,0.00,,---,0.00,VWS V14.01,2013-03-21 11:58:00,
2013-03-21 08:03:00,27.6,10.5,29.77,WNW,284,3.0,6.0,48,0.00,,---,0.00,VWS V14.01,2013-03-21 12:03:00,
2013-03-21 08:08:00,27.5,9.0,29.77,West,264,2.0,8.0,45,0.00,,---,0.00,VWS V14.01,2013-03-21 12:08:00,
2013-03-21 08:13:00,27.3,8.8,29.77,NW,310,7.0,7.0,45,0.00,,---,0.00,VWS V14.01,2013-03-21 12:13:00,
2013-03-21 08:18:00,27.3,8.8,29.77,West,279,4.0,6.0,45,0.00,,---,0.00,VWS V14.01,2013-03-21 12:18:00,
2013-03-21 08:23:00,27.2,7.7,29.77,West,277,6.0,8.0,43,0.00,,---,0.00,VWS V14.01,2013-03-21 12:23:00,
2013-03-21 08:28:00,27.2,8.2,29.77,WNW,296,5.0,8.0,44,0.00,,---,0.00,VWS V14.01,2013-03-21 12:28:00,
2013-03-21 08:33:00,27.3,7.8,29.78,NW,307,6.0,13.0,43,0.00,,---,0.00,VWS V14.01,2013-03-21 12:33:00,
2013-03-21 08:38:00,27.5,7.9,29.78,WSW,257,5.0,9.0,43,0.00,,---,0.00,VWS V14.01,2013-03-21 12:38:00,
2013-03-21 08:43:00,27.5,7.9,29.78,WNW,296,5.0,9.0,43,0.00,,---,0.00,VWS V14.01,2013-03-21 12:43:00,
2013-03-21 08:48:00,27.6,8.0,29.78,SSW,208,1.0,1.0,43,0.00,,---,0.00,VWS V14.01,2013-03-21 12:48:00,
2013-03-21 08:53:00,27.8,8.2,29.78,WNW,297,4.0,4.0,43,0.00,,---,0.00,VWS V14.01,2013-03-21 12:53:00,
2013-03-21 08:58:00,27.6,6.4,29.78,West,270,6.0,6.0,40,0.00,,---,0.00,VWS V14.01,2013-03-21 12:58:00,
2013-03-21 09:03:00,27.6,7.0,29.77,WNW,292,7.0,7.0,41,0.00,,---,0.00,VWS V14.01,2013-03-21 13:03:00,
2013-03-21 09:08:00,27.6,6.4,29.77,West,279,8.0,10.0,40,0.00,,---,0.00,VWS V14.01,2013-03-21 13:08:00,
2013-03-21 09:13:00,27.6,5.9,29.77,NW,306,6.0,7.0,39,0.00,,---,0.00,VWS V14.01,2013-03-21 13:13:00,
2013-03-21 09:18:00,27.8,6.6,29.79,WNW,293,7.0,7.0,40,0.00,,---,0.00,VWS V14.01,2013-03-21 13:18:00,
2013-03-21 09:23:00,27.6,7.0,29.79,WSW,251,5.0,5.0,41,0.00,,---,0.00,VWS V14.01,2013-03-21 13:23:00,
2013-03-21 09:28:00,27.9,6.7,29.79,WNW,290,4.0,5.0,40,0.00,,---,0.00,VWS V14.01,2013-03-21 13:28:00,
2013-03-21 09:33:00,28.5,8.9,29.79,West,276,4.0,4.0,43,0.00,,---,0.00,VWS V14.01,2013-03-21 13:33:00,
2013-03-21 09:38:00,28.4,7.2,29.79,NW,306,4.0,6.0,40,0.00,,---,0.00,VWS V14.01,2013-03-21 13:38:00,
2013-03-21 09:43:00,27.9,7.8,29.79,West,280,8.0,10.0,42,0.00,,---,0.00,VWS V14.01,2013-03-21 13:43:00,
2013-03-21 09:48:00,27.2,5.0,29.79,West,271,4.0,12.0,38,0.00,,---,0.00,VWS V14.01,2013-03-21 13:48:00,
2013-03-21 09:53:00,26.9,5.8,29.79,WNW,297,13.0,13.0,40,0.00,,---,0.00,VWS V14.01,2013-03-21 13:53:00,
2013-03-21 09:58:00,27.2,5.0,29.79,West,270,8.0,9.0,38,0.00,,---,0.00,VWS V14.01,2013-03-21 13:58:00,
2013-03-21 10:03:00,27.3,5.6,29.79,NNW,346,6.0,10.0,39,0.00,,---,0.00,VWS V14.01,2013-03-21 14:03:00,
2013-03-21 10:08:00,27.6,4.8,29.79,WSW,257,5.0,5.0,37,0.00,,---,0.00,VWS V14.01,2013-03-21 14:08:00,
2013-03-21 10:13:00,28.1,5.8,29.79,WNW,293,11.0,14.0,38,0.00,,---,0.00,VWS V14.01,2013-03-21 14:13:00,
2013-03-21 10:18:00,27.9,6.2,29.79,WSW,250,7.0,10.0,39,0.00,,---,0.00,VWS V14.01,2013-03-21 14:18:00,
2013-03-21 10:23:00,28.4,6.6,29.79,NW,310,12.0,12.0,39,0.00,,---,0.00,VWS V14.01,2013-03-21 14:23:00,
2013-03-21 10:28:00,28.1,5.2,29.79,SSW,207,9.0,9.0,37,0.00,,---,0.00,VWS V14.01,2013-03-21 14:28:00,
2013-03-21 10:33:00,28.1,6.3,29.79,West,278,8.0,10.0,39,0.00,,---,0.00,VWS V14.01,2013-03-21 14:33:00,
2013-03-21 10:38:00,28.4,5.5,29.79,South,183,2.0,10.0,37,0.00,,---,0.00,VWS V14.01,2013-03-21 14:38:00,
2013-03-21 10:43:00,28.5,6.1,29.79,West,275,5.0,11.0,38,0.00,,---,0.00,VWS V14.01,2013-03-21 14:43:00,
2013-03-21 10:48:00,28.7,5.7,29.78,WNW,298,5.0,9.0,37,0.00,,---,0.00,VWS V14.01,2013-03-21 14:48:00,
2013-03-21 10:53:00,28.7,5.7,29.78,WNW,283,8.0,9.0,37,0.00,,---,0.00,VWS V14.01,2013-03-21 14:53:00,
2013-03-21 10:58:00,28.8,4.6,29.78,NW,305,7.0,9.0,35,0.00,,---,0.00,VWS V14.01,2013-03-21 14:58:00,
2013-03-21 11:03:00,28.7,5.1,29.78,WSW,246,4.0,7.0,36,0.00,,---,0.00,VWS V14.01,2013-03-21 15:03:00,
2013-03-21 11:08:00,29.1,4.2,29.78,SW,234,6.0,7.0,34,0.00,,---,0.00,VWS V14.01,2013-03-21 15:08:00,
2013-03-21 11:13:00,29.0,4.8,29.78,West,276,4.0,12.0,35,0.00,,---,0.00,VWS V14.01,2013-03-21 15:13:00,
2013-03-21 11:18:00,29.0,6.0,29.78,NW,319,9.0,12.0,37,0.00,,---,0.00,VWS V14.01,2013-03-21 15:18:00,
2013-03-21 11:23:00,29.1,4.9,29.78,WNW,288,8.0,8.0,35,0.00,,---,0.00,VWS V14.01,2013-03-21 15:23:00,
2013-03-21 11:28:00,29.0,4.2,29.78,West,281,6.0,10.0,34,0.00,,---,0.00,VWS V14.01,2013-03-21 15:28:00,
2013-03-21 11:33:00,29.1,3.6,29.78,WNW,290,4.0,6.0,33,0.00,,---,0.00,VWS V14.01,2013-03-21 15:33:00,
2013-03-21 11:38:00,29.8,4.2,29.78,SW,227,7.0,9.0,33,0.00,,---,0.00,VWS V14.01,2013-03-21 15:38:00,
2013-03-21 11:43:00,29.8,3.5,29.78,WSW,242,12.0,12.0,32,0.00,,---,0.00,VWS V14.01,2013-03-21 15:43:00,
2013-03-21 11:48:00,29.8,2.9,29.78,SW,219,4.0,5.0,31,0.00,,---,0.00,VWS V14.01,2013-03-21 15:48:00,
2013-03-21 11:53:00,30.1,4.5,29.78,WSW,251,5.0,7.0,33,0.00,,---,0.00,VWS V14.01,2013-03-21 15:53:00,
2013-03-21 11:58:00,30.9,3.8,29.78,West,273,9.0,15.0,31,0.00,,---,0.00,VWS V14.01,2013-03-21 15:58:00,
2013-03-21 12:03:00,30.9,5.2,29.77,SW,217,6.0,8.0,33,0.00,,---,0.00,VWS V14.01,2013-03-21 16:03:00,
2013-03-21 12:08:00,31.0,7.2,29.77,SW,230,6.0,11.0,36,0.00,,---,0.00,VWS V14.01,2013-03-21 16:08:00,
2013-03-21 12:13:00,31.0,4.6,29.77,WNW,294,6.0,10.0,32,0.00,,---,0.00,VWS V14.01,2013-03-21 16:13:00,
2013-03-21 12:18:00,31.0,7.2,29.77,WNW,294,8.0,10.0,36,0.00,,---,0.00,VWS V14.01,2013-03-21 16:18:00,
2013-03-21 12:23:00,30.9,4.5,29.77,WSW,256,6.0,10.0,32,0.00,,---,0.00,VWS V14.01,2013-03-21 16:23:00,
2013-03-21 12:28:00,30.3,5.3,29.77,WNW,290,4.0,7.0,34,0.00,,---,0.00,VWS V14.01,2013-03-21 16:28:00,
2013-03-21 12:33:00,30.6,3.6,29.77,WSW,238,8.0,10.0,31,0.00,,---,0.00,VWS V14.01,2013-03-21 16:33:00,
2013-03-21 12:38:00,30.6,3.6,29.77,West,273,5.0,14.0,31,0.00,,---,0.00,VWS V14.01,2013-03-21 16:38:00,
2013-03-21 12:43:00,30.1,5.1,29.77,WSW,238,7.0,12.0,34,0.00,,---,0.00,VWS V14.01,2013-03-21 16:43:00,
2013-03-21 12:48:00,30.1,5.1,29.77,West,271,5.0,8.0,34,0.00,,---,0.00,VWS V14.01,2013-03-21 16:48:00,
2013-03-21 12:53:00,30.9,4.5,29.77,WSW,243,8.0,10.0,32,0.00,,---,0.00,VWS V14.01,2013-03-21 16:53:00,
2013-03-21 12:58:00,30.3,4.0,29.77,WSW,240,7.0,9.0,32,0.00,,---,0.00,VWS V14.01,2013-03-21 16:58:00,
2013-03-21 13:03:00,30.3,4.7,29.77,SSW,202,8.0,10.0,33,0.00,,---,0.00,VWS V14.01,2013-03-21 17:03:00,
2013-03-21 13:08:00,30.7,4.3,29.77,West,259,8.0,10.0,32,0.00,,---,0.00,VWS V14.01,2013-03-21 17:08:00,
2013-03-21 13:13:00,30.9,4.5,29.77,WSW,238,2.0,7.0,32,0.00,,---,0.00,VWS V14.01,2013-03-21 17:13:00,
2013-03-21 13:18:00,30.7,4.3,29.77,WSW,238,8.0,13.0,32,0.00,,---,0.00,VWS V14.01,2013-03-21 17:18:00,
2013-03-21 13:23:00,30.6,4.3,29.77,WNW,294,5.0,7.0,32,0.00,,---,0.00,VWS V14.01,2013-03-21 17:23:00,
2013-03-21 13:28:00,30.4,4.1,29.77,WNW,294,0.0,5.0,32,0.00,,---,0.00,VWS V14.01,2013-03-21 17:28:00,
2013-03-21 13:33:00,30.9,6.5,29.77,WNW,284,2.0,7.0,35,0.00,,---,0.00,VWS V14.01,2013-03-21 17:33:00,
2013-03-21 13:38:00,31.3,5.6,29.77,NNW,336,8.0,14.0,33,0.00,,---,0.00,VWS V14.01,2013-03-21 17:38:00,
2013-03-21 13:43:00,30.6,5.6,29.77,West,280,5.0,9.0,34,0.00,,---,0.00,VWS V14.01,2013-03-21 17:43:00,
2013-03-21 13:48:00,30.4,4.8,29.77,NW,308,5.0,9.0,33,0.00,,---,0.00,VWS V14.01,2013-03-21 17:48:00,
2013-03-21 13:53:00,30.6,5.6,29.77,SW,230,10.0,13.0,34,0.00,,---,0.00,VWS V14.01,2013-03-21 17:53:00,
2013-03-21 13:58:00,31.0,6.6,29.77,WNW,286,6.0,7.0,35,0.00,,---,0.00,VWS V14.01,2013-03-21 17:58:00,
2013-03-21 14:03:00,31.6,6.5,29.76,WNW,294,5.0,10.0,34,0.00,,---,0.00,VWS V14.01,2013-03-21 18:03:00,
2013-03-21 14:08:00,31.3,6.2,29.76,WNW,300,6.0,9.0,34,0.00,,---,0.00,VWS V14.01,2013-03-21 18:08:00,
2013-03-21 14:13:00,30.9,4.5,29.76,NW,312,3.0,6.0,32,0.00,,---,0.00,VWS V14.01,2013-03-21 18:13:00,
2013-03-21 14:18:00,30.7,5.7,29.76,West,265,6.0,11.0,34,0.00,,---,0.00,VWS V14.01,2013-03-21 18:18:00,
2013-03-21 14:23:00,30.7,3.7,29.76,WSW,254,5.0,13.0,31,0.00,,---,0.00,VWS V14.01,2013-03-21 18:23:00,
2013-03-21 14:28:00,30.4,5.4,29.76,West,279,4.0,5.0,34,0.00,,---,0.00,VWS V14.01,2013-03-21 18:28:00,
2013-03-21 14:33:00,30.6,4.9,29.76,SW,226,4.0,8.0,33,0.00,,---,0.00,VWS V14.01,2013-03-21 18:33:00,
2013-03-21 14:38:00,31.2,6.1,29.76,West,279,4.0,7.0,34,0.00,,---,0.00,VWS V14.01,2013-03-21 18:38:00,
2013-03-21 14:43:00,31.8,6.6,29.76,WSW,254,9.0,15.0,34,0.00,,---,0.00,VWS V14.01,2013-03-21 18:43:00,
2013-03-21 14:48:00,31.8,5.3,29.76,West,266,5.0,8.0,32,0.00,,---,0.00,VWS V14.01,2013-03-21 18:48:00,
2013-03-21 14:53:00,31.2,4.1,29.76,West,263,3.0,9.0,31,0.00,,---,0.00,VWS V14.01,2013-03-21 18:53:00,
2013-03-21 14:58:00,31.0,4.6,29.76,WNW,286,7.0,10.0,32,0.00,,---,0.00,VWS V14.01,2013-03-21 18:58:00,
2013-03-21 15:03:00,31.5,5.1,29.76,NW,316,7.0,7.0,32,0.00,,---,0.00,VWS V14.01,2013-03-21 19:03:00,
2013-03-21 15:08:00,31.8,6.6,29.76,WNW,296,7.0,9.0,34,0.00,,---,0.00,VWS V14.01,2013-03-21 19:08:00,
2013-03-21 15:13:00,31.6,5.1,29.76,SW,231,10.0,12.0,32,0.00,,---,0.00,VWS V14.01,2013-03-21 19:13:00,
2013-03-21 15:18:00,31.5,5.7,29.75,West,274,6.0,6.0,33,0.00,,---,0.00,VWS V14.01,2013-03-21 19:18:00,
2013-03-21 15:23:00,31.8,5.3,29.75,WSW,254,5.0,13.0,32,0.00,,---,0.00,VWS V14.01,2013-03-21 19:23:00,
2013-03-21 15:28:00,32.1,4.9,29.75,NW,309,7.0,15.0,31,0.00,,---,0.00,VWS V14.01,2013-03-21 19:28:00,
2013-03-21 15:33:00,31.6,3.0,29.75,WSW,256,10.0,13.0,29,0.00,,---,0.00,VWS V14.01,2013-03-21 19:33:00,
2013-03-21 15:38:00,31.5,5.1,29.75,West,267,5.0,8.0,32,0.00,,---,0.00,VWS V14.01,2013-03-21 19:38:00,
2013-03-21 15:43:00,32.7,5.4,29.75,WSW,253,9.0,11.0,31,0.00,,---,0.00,VWS V14.01,2013-03-21 19:43:00,
2013-03-21 15:48:00,32.7,6.1,29.76,WSW,252,6.0,12.0,32,0.00,,---,0.00,VWS V14.01,2013-03-21 19:48:00,
2013-03-21 15:53:00,32.1,4.2,29.76,West,269,9.0,15.0,30,0.00,,---,0.00,VWS V14.01,2013-03-21 19:53:00,
2013-03-21 15:58:00,31.8,6.0,29.76,WSW,249,6.0,10.0,33,0.00,,---,0.00,VWS V14.01,2013-03-21 19:58:00,
2013-03-21 16:03:00,31.6,6.5,29.77,WNW,292,7.0,8.0,34,0.00,,---,0.00,VWS V14.01,2013-03-21 20:03:00,
2013-03-21 16:08:00,31.8,4.6,29.77,North,355,1.0,11.0,31,0.00,,---,0.00,VWS V14.01,2013-03-21 20:08:00,
2013-03-21 16:13:00,31.6,5.1,29.77,SW,225,9.0,12.0,32,0.00,,---,0.00,VWS V14.01,2013-03-21 20:13:00,
2013-03-21 16:18:00,31.8,6.6,29.77,SSW,207,14.0,14.0,34,0.00,,---,0.00,VWS V14.01,2013-03-21 20:18:00,
2013-03-21 16:23:00,32.4,9.1,29.77,WNW,290,4.0,10.0,37,0.00,,---,0.00,VWS V14.01,2013-03-21 20:23:00,
2013-03-21 16:28:00,32.8,5.5,29.77,WNW,292,7.0,13.0,31,0.00,,---,0.00,VWS V14.01,2013-03-21 20:28:00,
2013-03-21 16:33:00,32.4,5.8,29.78,NNW,333,9.0,14.0,32,0.00,,---,0.00,VWS V14.01,2013-03-21 20:33:00,
2013-03-21 16:38:00,32.2,6.3,29.78,WNW,293,4.0,8.0,33,0.00,,---,0.00,VWS V14.01,2013-03-21 20:38:00,
2013-03-21 16:43:00,31.5,5.7,29.78,SSW,213,11.0,15.0,33,0.00,,---,0.00,VWS V14.01,2013-03-21 20:43:00,
2013-03-21 16:48:00,30.7,6.3,29.79,NW,312,6.0,10.0,35,0.00,,---,0.00,VWS V14.01,2013-03-21 20:48:00,
2013-03-21 16:53:00,30.7,6.3,29.79,WNW,284,6.0,9.0,35,0.00,,---,0.00,VWS V14.01,2013-03-21 20:53:00,
2013-03-21 16:58:00,30.1,3.8,29.79,WNW,294,9.0,14.0,32,0.00,,---,0.00,VWS V14.01,2013-03-21 20:58:00,
2013-03-21 17:03:00,29.8,4.9,29.80,NW,305,6.0,11.0,34,0.00,,---,0.00,VWS V14.01,2013-03-21 21:03:00,
2013-03-21 17:08:00,30.0,6.9,29.80,WSW,238,6.0,9.0,37,0.00,,---,0.00,VWS V14.01,2013-03-21 21:08:00,
2013-03-21 17:13:00,30.1,7.6,29.80,SW,230,6.0,7.0,38,0.00,,---,0.00,VWS V14.01,2013-03-21 21:13:00,
2013-03-21 17:18:00,30.3,6.6,29.80,WNW,288,7.0,11.0,36,0.00,,---,0.00,VWS V14.01,2013-03-21 21:18:00,
2013-03-21 17:23:00,30.7,5.7,29.80,WNW,284,7.0,8.0,34,0.00,,---,0.00,VWS V14.01,2013-03-21 21:23:00,
2013-03-21 17:28:00,31.3,6.8,29.80,WNW,290,7.0,7.0,35,0.00,,---,0.00,VWS V14.01,2013-03-21 21:28:00,
2013-03-21 17:33:00,31.5,5.7,29.80,West,275,6.0,7.0,33,0.00,,---,0.00,VWS V14.01,2013-03-21 21:33:00,
2013-03-21 17:38:00,30.9,6.5,29.80,WNW,302,7.0,11.0,35,0.00,,---,0.00,VWS V14.01,2013-03-21 21:38:00,
2013-03-21 17:43:00,30.9,7.1,29.80,WSW,240,6.0,9.0,36,0.00,,---,0.00,VWS V14.01,2013-03-21 21:43:00,
2013-03-21 17:48:00,31.3,8.1,29.80,WNW,296,12.0,12.0,37,0.00,,---,0.00,VWS V14.01,2013-03-21 21:48:00,
2013-03-21 17:53:00,31.2,8.0,29.80,NW,316,13.0,13.0,37,0.00,,---,0.00,VWS V14.01,2013-03-21 21:53:00,
2013-03-21 17:58:00,31.0,7.2,29.80,West,261,10.0,10.0,36,0.00,,---,0.00,VWS V14.01,2013-03-21 21:58:00,
2013-03-21 18:03:00,30.9,6.5,29.81,SW,216,9.0,9.0,35,0.00,,---,0.00,VWS V14.01,2013-03-21 22:03:00,
2013-03-21 18:08:00,30.7,5.7,29.81,WSW,239,5.0,9.0,34,0.00,,---,0.00,VWS V14.01,2013-03-21 22:08:00,
2013-03-21 18:13:00,30.7,6.3,29.81,SSW,206,10.0,10.0,35,0.00,,---,0.00,VWS V14.01,2013-03-21 22:13:00,
2013-03-21 18:18:00,31.2,6.8,29.81,WSW,251,4.0,8.0,35,0.00,,---,0.00,VWS V14.01,2013-03-21 22:18:00,
2013-03-21 18:23:00,31.2,8.0,29.81,West,263,3.0,9.0,37,0.00,,---,0.00,VWS V14.01,2013-03-21 22:23:00,
2013-03-21 18:28:00,31.0,7.2,29.81,SW,216,6.0,13.0,36,0.00,,---,0.00,VWS V14.01,2013-03-21 22:28:00,
2013-03-21 18:33:00,31.0,7.8,29.82,WSW,238,8.0,10.0,37,0.00,,---,0.00,VWS V14.01,2013-03-21 22:33:00,
2013-03-21 18:38:00,30.7,8.7,29.82,WNW,288,7.0,15.0,39,0.00,,---,0.00,VWS V14.01,2013-03-21 22:38:00,
2013-03-21 18:43:00,30.0,5.7,29.82,SW,226,11.0,18.0,35,0.00,,---,0.00,VWS V14.01,2013-03-21 22:43:00,
2013-03-21 18:48:00,29.5,6.4,29.83,West,271,12.0,12.0,37,0.00,,---,0.00,VWS V14.01,2013-03-21 22:48:00,
2013-03-21 18:53:00,29.4,7.5,29.83,West,275,5.0,8.0,39,0.00,,---,0.00,VWS V14.01,2013-03-21 22:53:00,
2013-03-21 18:58:00,29.1,6.7,29.83,WNW,303,10.0,14.0,38,0.00,,---,0.00,VWS V14.01,2013-03-21 22:58:00,
2013-03-21 19:03:00,29.1,7.2,29.84,SW,220,10.0,14.0,39,0.00,,---,0.00,VWS V14.01,2013-03-21 23:03:00,
2013-03-21 19:08:00,29.0,7.7,29.84,SW,231,13.0,13.0,40,0.00,,---,0.00,VWS V14.01,2013-03-21 23:08:00,
2013-03-21 19:13:00,28.8,6.4,29.84,WSW,252,8.0,16.0,38,0.00,,---,0.00,VWS V14.01,2013-03-21 23:13:00,
2013-03-21 19:18:00,28.7,6.3,29.85,West,265,7.0,14.0,38,0.00,,---,0.00,VWS V14.01,2013-03-21 23:18:00,
2013-03-21 19:23:00,28.5,6.7,29.85,WNW,294,4.0,11.0,39,0.00,,---,0.00,VWS V14.01,2013-03-21 23:23:00,
2013-03-21 19:28:00,28.4,6.6,29.85,NNW,338,9.0,13.0,39,0.00,,---,0.00,VWS V14.01,2013-03-21 23:28:00,
2013-03-21 19:33:00,28.4,6.6,29.85,NNW,346,6.0,7.0,39,0.00,,---,0.00,VWS V14.01,2013-03-21 23:33:00,
2013-03-21 19:38:00,28.1,5.2,29.85,West,281,5.0,7.0,37,0.00,,---,0.00,VWS V14.01,2013-03-21 23:38:00,
2013-03-21 19:43:00,28.1,5.8,29.85,WNW,301,7.0,9.0,38,0.00,,---,0.00,VWS V14.01,2013-03-21 23:43:00,
2013-03-21 19:48:00,27.8,5.5,29.86,West,281,2.0,6.0,38,0.00,,---,0.00,VWS V14.01,2013-03-21 23:48:00,
2013-03-21 19:53:00,27.8,5.5,29.86,WNW,285,7.0,7.0,38,0.00,,---,0.00,VWS V14.01,2013-03-21 23:53:00,
2013-03-21 19:58:00,27.6,5.9,29.86,WNW,290,3.0,9.0,39,0.00,,---,0.00,VWS V14.01,2013-03-21 23:58:00,
2013-03-21 20:03:00,27.5,5.8,29.87,WSW,254,3.0,9.0,39,0.00,,---,0.00,VWS V14.01,2013-03-22 00:03:00,
2013-03-21 20:08:00,27.3,6.2,29.87,SSW,198,5.0,5.0,40,0.00,,---,0.00,VWS V14.01,2013-03-22 00:08:00,
2013-03-21 20:13:00,27.2,5.5,29.87,WSW,252,6.0,10.0,39,0.00,,---,0.00,VWS V14.01,2013-03-22 00:13:00,
2013-03-21 20:18:00,27.0,5.9,29.87,WNW,292,4.0,9.0,40,0.00,,---,0.00,VWS V14.01,2013-03-22 00:18:00,
2013-03-21 20:23:00,27.0,5.9,29.87,West,274,2.0,8.0,40,0.00,,---,0.00,VWS V14.01,2013-03-22 00:23:00,
2013-03-21 20:28:00,26.9,5.8,29.87,West,274,3.0,3.0,40,0.00,,---,0.00,VWS V14.01,2013-03-22 00:28:00,
2013-03-21 20:33:00,26.7,6.2,29.88,SW,236,1.0,2.0,41,0.00,,---,0.00,VWS V14.01,2013-03-22 00:33:00,
2013-03-21 20:38:00,26.6,6.6,29.88,West,261,4.0,5.0,42,0.00,,---,0.00,VWS V14.01,2013-03-22 00:38:00,
2013-03-21 20:43:00,26.4,6.4,29.88,West,264,1.0,2.0,42,0.00,,---,0.00,VWS V14.01,2013-03-22 00:43:00,
2013-03-21 20:48:00,26.4,6.9,29.88,WNW,301,4.0,6.0,43,0.00,,---,0.00,VWS V14.01,2013-03-22 00:48:00,
2013-03-21 20:53:00,26.3,6.3,29.88,West,278,2.0,4.0,42,0.00,,---,0.00,VWS V14.01,2013-03-22 00:53:00,
2013-03-21 20:58:00,26.3,6.9,29.88,SW,228,4.0,7.0,43,0.00,,---,0.00,VWS V14.01,2013-03-22 00:58:00,
2013-03-21 21:03:00,26.3,6.9,29.88,WNW,287,4.0,5.0,43,0.00,,---,0.00,VWS V14.01,2013-03-22 01:03:00,
2013-03-21 21:08:00,26.3,6.9,29.88,West,281,2.0,4.0,43,0.00,,---,0.00,VWS V14.01,2013-03-22 01:08:00,
2013-03-21 21:13:00,26.0,6.6,29.88,WSW,254,4.0,4.0,43,0.00,,---,0.00,VWS V14.01,2013-03-22 01:13:00,
2013-03-21 21:18:00,26.0,6.6,29.89,SW,234,4.0,5.0,43,0.00,,---,0.00,VWS V14.01,2013-03-22 01:18:00,
2013-03-21 21:23:00,25.8,6.4,29.89,SW,232,4.0,8.0,43,0.00,,---,0.00,VWS V14.01,2013-03-22 01:23:00,
2013-03-21 21:28:00,25.8,6.4,29.89,WNW,302,4.0,9.0,43,0.00,,---,0.00,VWS V14.01,2013-03-22 01:28:00,
2013-03-21 21:33:00,26.1,6.2,29.90,WNW,288,0.0,1.0,42,0.00,,---,0.00,VWS V14.01,2013-03-22 01:33:00,
2013-03-21 21:38:00,26.0,6.6,29.90,West,275,1.0,2.0,43,0.00,,---,0.00,VWS V14.01,2013-03-22 01:38:00,
2013-03-21 21:43:00,26.0,6.1,29.90,West,275,2.0,2.0,42,0.00,,---,0.00,VWS V14.01,2013-03-22 01:43:00,
2013-03-21 21:48:00,25.7,6.8,29.91,WSW,249,3.0,3.0,44,0.00,,---,0.00,VWS V14.01,2013-03-22 01:48:00,
2013-03-21 21:53:00,25.6,6.7,29.91,WNW,286,4.0,8.0,44,0.00,,---,0.00,VWS V14.01,2013-03-22 01:53:00,
2013-03-21 21:58:00,25.6,6.7,29.91,NW,306,8.0,8.0,44,0.00,,---,0.00,VWS V14.01,2013-03-22 01:58:00,
2013-03-21 22:03:00,25.6,6.2,29.91,NW,306,11.0,11.0,43,0.00,,---,0.00,VWS V14.01,2013-03-22 02:03:00,
2013-03-21 22:08:00,25.8,6.4,29.91,WSW,257,7.0,13.0,43,0.00,,---,0.00,VWS V14.01,2013-03-22 02:08:00,
2013-03-21 22:13:00,25.8,6.4,29.91,WNW,298,6.0,7.0,43,0.00,,---,0.00,VWS V14.01,2013-03-22 02:13:00,
2013-03-21 22:18:00,25.8,6.4,29.92,West,281,12.0,12.0,43,0.00,,---,0.00,VWS V14.01,2013-03-22 02:18:00,
2013-03-21 22:23:00,25.7,6.8,29.92,WNW,285,6.0,6.0,44,0.00,,---,0.00,VWS V14.01,2013-03-22 02:23:00,
2013-03-21 22:28:00,25.7,6.8,29.92,NW,313,8.0,8.0,44,0.00,,---,0.00,VWS V14.01,2013-03-22 02:28:00,
2013-03-21 22:33:00,25.7,7.3,29.91,West,281,2.0,4.0,45,0.00,,---,0.00,VWS V14.01,2013-03-22 02:33:00,
2013-03-21 22:38:00,25.6,7.2,29.91,WNW,285,0.0,10.0,45,0.00,,---,0.00,VWS V14.01,2013-03-22 02:38:00,
2013-03-21 22:43:00,25.6,7.2,29.91,WNW,296,2.0,2.0,45,0.00,,---,0.00,VWS V14.01,2013-03-22 02:43:00,
2013-03-21 22:48:00,25.4,6.5,29.91,WNW,292,6.0,7.0,44,0.00,,---,0.00,VWS V14.01,2013-03-22 02:48:00,
2013-03-21 22:53:00,25.4,7.0,29.91,WSW,250,1.0,3.0,45,0.00,,---,0.00,VWS V14.01,2013-03-22 02:53:00,
2013-03-21 22:58:00,25.3,6.9,29.91,SSW,203,0.0,4.0,45,0.00,,---,0.00,VWS V14.01,2013-03-22 02:58:00,
2013-03-21 22:59:00,24.1,6.8,29.92,SSW,209,1.0,6.0,47,0.00,,---,0.00,VWS V14.01,2013-03-22 02:59:00,
2013-03-21 23:00:00,24.1,6.8,29.92,SSW,209,0.0,5.0,47,0.00,,---,0.00,VWS V14.01,2013-03-22 03:00:00,
2013-03-21 23:01:00,24.1,7.3,29.92,SSW,209,1.0,1.0,48,0.00,,---,0.00,VWS V14.01,2013-03-22 03:01:00,
2013-03-21 23:02:00,24.1,7.3,29.92,SSW,209,2.0,4.0,48,0.00,,---,0.00,VWS V14.01,2013-03-22 03:02:00,
2013-03-21 23:03:00,25.3,7.4,29.91,WSW,240,0.0,0.0,46,0.00,,---,0.00,VWS V14.01,2013-03-22 03:03:00,
2013-03-21 23:04:00,24.1,7.3,29.92,SSW,209,2.0,3.0,48,0.00,,---,0.00,VWS V14.01,2013-03-22 03:04:00,
2013-03-21 23:08:00,25.1,6.8,29.91,WNW,294,5.0,5.0,45,0.00,,---,0.00,VWS V14.01,2013-03-22 03:08:00,
2013-03-21 23:13:00,25.1,6.8,29.91,NW,315,2.0,3.0,45,0.00,,---,0.00,VWS V14.01,2013-03-22 03:13:00,
2013-03-21 23:18:00,25.1,6.8,29.91,West,272,0.0,0.0,45,0.00,,---,0.00,VWS V14.01,2013-03-22 03:18:00,
2013-03-21 23:23:00,25.0,6.7,29.91,SW,223,2.0,2.0,45,0.00,,---,0.00,VWS V14.01,2013-03-22 03:23:00,
2013-03-21 23:28:00,25.0,7.2,29.91,SW,217,1.0,4.0,46,0.00,,---,0.00,VWS V14.01,2013-03-22 03:28:00,
2013-03-21 23:33:00,24.8,7.0,29.91,SSW,213,3.0,4.0,46,0.00,,---,0.00,VWS V14.01,2013-03-22 03:33:00,
2013-03-21 23:38:00,24.7,6.9,29.91,South,190,1.0,1.0,46,0.00,,---,0.00,VWS V14.01,2013-03-22 03:38:00,
2013-03-21 23:43:00,24.5,6.7,29.91,South,184,5.0,5.0,46,0.00,,---,0.00,VWS V14.01,2013-03-22 03:43:00,
2013-03-21 23:48:00,24.4,6.6,29.92,South,184,0.0,0.0,46,0.00,,---,0.00,VWS V14.01,2013-03-22 03:48:00,
2013-03-21 23:53:00,24.2,6.9,29.92,South,184,0.0,4.0,47,0.00,,---,0.00,VWS V14.01,2013-03-22 03:53:00,
2013-03-21 23:58:00,24.1,6.8,29.92,South,184,2.0,2.0,47,0.00,,---,0.00,VWS V14.01,2013-03-22 03:58:00,